Dana, Kentucky
Current Conditions -  °F | °C
As of 7:35 PM on Monday 24 Nov 2014 (Local Time) from KPBX Reporting Station
Clear Clear  
Wind Chill: 57°   Ceiling: Unl
Heat Index: 57°   Visibility: 10mi
Dew Point: 39°   Wind: 0mph
Humidity: 51%   Direction: NA
Pressure: 29.82"   Gusts: NA
Location:  37.56°N, 82.69°W
Report Text: KPBX 250035Z AUTO 00000KT 10SM CLR 14/04 A2982 RMK AO2 T01400040
Loading
Personal Weather Stations






























Interactive Weather Map New forecast layout! Learn more

10-Day Weather Forecast

Advertisements
Track Severe Weather on mobile